Time;durP1;ratioP1;P1;durP2;ratioP2;P2;SDS_P1;SDS_P2;PMS_P1;PMS_P2;Temp;Humidity;BMP_temperature;BMP_pressure;BME280_temperature;BME280_humidity;BME280_pressure;Samples;Min_cycle;Max_cycle;Signal;HPM_P1;HPM_P2
2021/09/04 00:00:26;;;;;;;;;;;;;;;-144.99;86.63;52338.03;5083659;28;19959;-72
2021/09/04 00:02:52;;;;;;;;;;;;;;;-144.99;86.59;52348.22;5073383;28;19985;-75
2021/09/04 00:05:18;;;;;;;;;;;;;;;-144.99;86.51;52344.16;5077882;28;20457;-74
2021/09/04 00:07:45;;;;;;;;;;;;;;;-144.99;86.44;52378.78;5067875;28;19993;-74
2021/09/04 00:10:13;;;;;;;;;;;;;;;-144.99;86.12;52362.50;5080607;28;19931;-73
2021/09/04 00:12:39;;;;;;;;;;;;;;;-144.99;86.46;52374.72;5085798;28;19978;-72
2021/09/04 00:15:06;;;;;;;;;;;;;;;-144.99;86.32;52313.56;5087033;28;20057;-74
2021/09/04 00:17:33;;;;;;;;;;;;;;;-144.99;86.33;52382.88;5085551;28;20037;-73
2021/09/04 00:19:59;;;;;;;;;;;;;;;-144.99;86.13;52333.94;5086022;28;19979;-73
2021/09/04 00:22:26;;;;;;;;;;;;;;;-144.99;85.70;52366.56;5081585;28;20078;-74
2021/09/04 00:24:52;;;;;;;;;;;;;;;-144.99;86.17;52378.78;5082257;28;20455;-74
2021/09/04 00:27:20;;;;;;;;;;;;;;;-144.99;86.23;52338.03;5086377;28;20019;-74
2021/09/04 00:29:46;;;;;;;;;;;;;;;-144.99;86.37;52358.41;5082861;28;19993;-74
2021/09/04 00:32:12;;;;;;;;;;;;;;;-144.99;86.32;52354.34;5076831;28;19970;-74
2021/09/04 00:34:39;;;;;;;;;;;;;;;-144.99;86.48;52348.22;5083264;28;19989;-72
2021/09/04 00:37:05;;;;;;;;;;;;;;;-144.99;86.98;52333.94;5085350;28;19989;-74
2021/09/04 00:39:31;;;;;;;;;;;;;;;-144.99;86.88;52358.41;5085086;28;19974;-74
2021/09/04 00:41:58;;;;;;;;;;;;;;;-144.99;87.06;52366.56;5085498;28;20424;-74
2021/09/04 00:44:25;;;;;;;;;;;;;;;-144.99;87.02;52366.56;5086207;28;19967;-74
2021/09/04 00:47:00;;;;;;;;;;;;;;;-144.99;86.76;52346.19;5086138;28;19999;-74
2021/09/04 00:49:26;;;;;;;;;;;;;;;-144.99;87.02;52374.72;5075519;28;20494;-76
2021/09/04 00:51:52;;;;;;;;;;;;;;;-144.99;86.96;52370.63;5085250;28;19966;-75
2021/09/04 00:54:19;;;;;;;;;;;;;;;-144.99;87.20;52340.06;5085218;28;20375;-74
2021/09/04 00:56:45;;;;;;;;;;;;;;;-144.99;87.11;52350.25;5087245;28;20068;-75
2021/09/04 00:59:11;;;;;;;;;;;;;;;-144.99;87.04;52382.88;5086390;28;19988;-75
2021/09/04 01:01:39;;;;;;;;;;;;;;;-144.99;86.74;52409.38;5086292;28;19986;-75
2021/09/04 01:04:05;;;;;;;;;;;;;;;-144.99;86.94;52362.50;5085930;28;19980;-75
2021/09/04 01:06:32;;;;;;;;;;;;;;;-144.99;86.69;52362.50;5073866;28;20344;-75
2021/09/04 01:08:58;;;;;;;;;;;;;;;-144.99;86.60;52374.72;5073937;28;20021;-74
2021/09/04 01:11:25;;;;;;;;;;;;;;;-144.99;86.47;52374.72;5086735;28;19979;-75
2021/09/04 01:13:51;;;;;;;;;;;;;;;-144.99;86.42;52370.63;5081333;28;19985;-73
2021/09/04 01:16:17;;;;;;;;;;;;;;;-144.99;86.65;52362.50;5077601;28;20000;-74
2021/09/04 01:18:45;;;;;;;;;;;;;;;-144.99;86.75;52331.91;5085145;28;20348;-74
2021/09/04 01:21:11;;;;;;;;;;;;;;;-144.99;86.71;52407.31;5084551;28;20156;-74
2021/09/04 01:23:38;;;;;;;;;;;;;;;-144.99;86.62;52348.22;5084218;28;19979;-74
2021/09/04 01:26:06;;;;;;;;;;;;;;;-144.99;86.72;52362.50;5073598;28;20473;-74
2021/09/04 01:28:33;;;;;;;;;;;;;;;-144.99;86.55;52329.88;5086484;28;20159;-75
2021/09/04 01:30:59;;;;;;;;;;;;;;;-144.99;86.28;52362.50;5080800;28;20048;-74
2021/09/04 01:33:26;;;;;;;;;;;;;;;-144.99;86.49;52368.59;5082023;28;19974;-74
2021/09/04 01:35:52;;;;;;;;;;;;;;;-144.99;86.56;52370.63;5080922;28;19978;-74
2021/09/04 01:38:18;;;;;;;;;;;;;;;-144.99;86.15;52340.06;5075417;28;20022;-76
2021/09/04 01:40:45;;;;;;;;;;;;;;;-144.99;86.11;52309.50;5089262;28;20817;-76
2021/09/04 01:43:12;;;;;;;;;;;;;;;-144.99;85.87;52374.72;5090405;28;19982;-74
2021/09/04 01:45:39;;;;;;;;;;;;;;;-144.99;86.26;52358.41;5088990;28;19982;-75
2021/09/04 01:48:05;;;;;;;;;;;;;;;-144.99;86.17;52350.25;5087490;28;19997;-76
2021/09/04 01:50:32;;;;;;;;;;;;;;;-144.99;85.98;52338.03;5088000;28;19991;-77
2021/09/04 01:52:59;;;;;;;;;;;;;;;-144.99;85.79;52350.25;5086522;28;19974;-77
2021/09/04 01:55:25;;;;;;;;;;;;;;;-144.99;85.68;52358.41;5083411;28;20017;-75
2021/09/04 01:57:51;;;;;;;;;;;;;;;-144.99;85.55;52358.41;5074980;28;19994;-75
2021/09/04 02:00:19;;;;;;;;;;;;;;;-144.99;85.35;52342.09;5088221;28;20006;-75
2021/09/04 02:02:45;;;;;;;;;;;;;;;-144.99;85.19;52362.50;5091839;28;20457;-76
2021/09/04 02:05:12;;;;;;;;;;;;;;;-144.99;85.23;52366.56;5085704;28;19974;-76
2021/09/04 02:07:38;;;;;;;;;;;;;;;-144.99;85.05;52378.78;5090720;28;20025;-76
2021/09/04 02:10:06;;;;;;;;;;;;;;;-144.99;85.12;52350.25;5089209;28;20211;-76
2021/09/04 02:12:32;;;;;;;;;;;;;;;-144.99;85.06;52309.50;5092397;28;19978;-76
2021/09/04 02:14:58;;;;;;;;;;;;;;;-144.99;84.93;52331.91;5091921;28;20352;-76
2021/09/04 02:17:26;;;;;;;;;;;;;;;-144.99;85.07;52360.44;5083110;28;19987;-76
2021/09/04 02:19:52;;;;;;;;;;;;;;;-144.99;84.91;52386.94;5091815;28;19978;-76
2021/09/04 02:22:19;;;;;;;;;;;;;;;-144.99;84.83;52354.34;5100488;28;20370;-75
2021/09/04 02:24:45;;;;;;;;;;;;;;;-144.99;84.39;52350.25;5092043;28;19978;-75
2021/09/04 02:27:12;;;;;;;;;;;;;;;-144.99;84.36;52354.34;5090688;28;19993;-76
2021/09/04 02:29:38;;;;;;;;;;;;;;;-144.99;84.15;52346.19;5091342;28;20001;-74
2021/09/04 02:32:05;;;;;;;;;;;;;;;-144.99;84.18;52374.72;5092081;28;19989;-75
2021/09/04 02:34:32;;;;;;;;;;;;;;;-144.99;83.98;52352.28;5092035;28;20064;-75
2021/09/04 02:36:59;;;;;;;;;;;;;;;-144.99;84.01;52358.41;5087082;28;20456;-75
2021/09/04 02:39:25;;;;;;;;;;;;;;;-144.99;84.10;52372.69;5091026;28;19979;-75
2021/09/04 02:41:51;;;;;;;;;;;;;;;-144.99;83.70;52362.50;5091116;28;20386;-75
2021/09/04 02:44:17;;;;;;;;;;;;;;;-144.99;84.61;52333.94;5091989;28;19989;-75
2021/09/04 02:46:44;;;;;;;;;;;;;;;-144.99;84.40;52350.25;5088229;28;20461;-75
2021/09/04 02:49:10;;;;;;;;;;;;;;;-144.99;84.38;52354.34;5086293;28;19986;-75
2021/09/04 02:51:39;;;;;;;;;;;;;;;-144.99;84.18;52338.03;5072392;28;19978;-76
2021/09/04 02:54:05;;;;;;;;;;;;;;;-144.99;84.19;52374.72;5082545;28;19994;-75
2021/09/04 02:56:32;;;;;;;;;;;;;;;-144.99;84.29;52386.94;5087330;28;20035;-77
2021/09/04 02:58:58;;;;;;;;;;;;;;;-144.99;84.35;52338.03;5090407;28;19986;-76
2021/09/04 03:01:24;;;;;;;;;;;;;;;-144.99;84.36;52362.50;5091079;28;20479;-75
2021/09/04 03:03:50;;;;;;;;;;;;;;;-144.99;83.92;52399.19;5088602;28;19983;-76
2021/09/04 03:06:17;;;;;;;;;;;;;;;-144.99;83.92;52378.78;5087371;28;20009;-76
2021/09/04 03:08:44;;;;;;;;;;;;;;;-144.99;83.82;52362.50;5086354;28;20366;-76
2021/09/04 03:11:11;;;;;;;;;;;;;;;-144.99;83.53;52362.50;5088163;28;19998;-76
2021/09/04 03:13:37;;;;;;;;;;;;;;;-144.99;83.63;52370.63;5088658;28;20036;-76
2021/09/04 03:16:03;;;;;;;;;;;;;;;-144.99;83.56;52391.03;5088329;28;19982;-76
2021/09/04 03:18:30;;;;;;;;;;;;;;;-144.99;83.46;52350.25;5083093;28;19974;-76
2021/09/04 03:20:56;;;;;;;;;;;;;;;-144.99;83.31;52329.88;5086979;28;20080;-76
2021/09/04 03:23:22;;;;;;;;;;;;;;;-144.99;83.53;52356.38;5086629;28;20469;-76
2021/09/04 03:25:50;;;;;;;;;;;;;;;-144.99;83.68;52329.88;5087628;28;19984;-75
2021/09/04 03:28:16;;;;;;;;;;;;;;;-144.99;83.46;52333.94;5084349;28;19982;-74
2021/09/04 03:30:43;;;;;;;;;;;;;;;-144.99;83.59;52354.34;5074203;28;20023;-76
2021/09/04 03:33:09;;;;;;;;;;;;;;;-144.99;83.06;52382.88;5082733;28;19978;-76
2021/09/04 03:35:35;;;;;;;;;;;;;;;-144.99;83.13;52358.41;5087981;28;19978;-77
2021/09/04 03:38:02;;;;;;;;;;;;;;;-144.99;82.99;52342.09;5085768;28;20000;-77
2021/09/04 03:40:28;;;;;;;;;;;;;;;-144.99;83.19;52397.13;5085883;28;19978;-76
2021/09/04 03:42:56;;;;;;;;;;;;;;;-144.99;83.03;52354.34;5087955;28;20441;-75
2021/09/04 03:45:22;;;;;;;;;;;;;;;-144.99;82.99;52342.09;5087907;28;20036;-77
2021/09/04 03:47:48;;;;;;;;;;;;;;;-144.99;82.76;52382.88;5084876;28;19998;-76
2021/09/04 03:50:14;;;;;;;;;;;;;;;-144.99;82.59;52338.03;5082710;28;19963;-76
2021/09/04 03:52:41;;;;;;;;;;;;;;;-144.99;82.20;52366.56;5085642;28;20432;-75
2021/09/04 03:55:07;;;;;;;;;;;;;;;-144.99;81.93;52362.50;5088369;28;20023;-76
2021/09/04 03:57:34;;;;;;;;;;;;;;;-144.99;81.63;52342.09;5087765;28;20022;-77
2021/09/04 04:00:02;;;;;;;;;;;;;;;-144.99;81.39;52327.84;5086202;28;20373;-77
2021/09/04 04:02:28;;;;;;;;;;;;;;;-144.99;81.27;52358.41;5087557;28;19979;-77
2021/09/04 04:04:54;;;;;;;;;;;;;;;-144.99;81.36;52364.53;5087332;28;19974;-76
2021/09/04 04:07:21;;;;;;;;;;;;;;;-144.99;81.40;52358.41;5070970;28;20082;-76
2021/09/04 04:09:47;;;;;;;;;;;;;;;-144.99;81.24;52333.94;5074777;28;20001;-76
2021/09/04 04:12:13;;;;;;;;;;;;;;;-144.99;80.98;52346.19;5077914;28;19971;-74
2021/09/04 04:14:40;;;;;;;;;;;;;;;-144.99;80.94;52370.63;5087149;28;20032;-75
2021/09/04 04:17:07;;;;;;;;;;;;;;;-144.99;80.82;52313.56;5087378;28;20010;-75
2021/09/04 04:19:34;;;;;;;;;;;;;;;-144.99;80.40;52374.72;5086993;28;20356;-74
2021/09/04 04:22:00;;;;;;;;;;;;;;;-144.99;80.43;52342.09;5084986;28;19989;-76
2021/09/04 04:24:26;;;;;;;;;;;;;;;-144.99;80.41;52321.72;5087111;28;19984;-76
2021/09/04 04:26:52;;;;;;;;;;;;;;;-144.99;80.20;52342.09;5087555;28;20047;-76
2021/09/04 04:29:19;;;;;;;;;;;;;;;-144.99;80.08;52374.72;5085530;28;20390;-75
2021/09/04 04:31:45;;;;;;;;;;;;;;;-144.99;79.87;52407.31;5080617;28;19991;-76
2021/09/04 04:34:13;;;;;;;;;;;;;;;-144.99;79.05;52380.84;5083331;28;19975;-76
2021/09/04 04:36:39;;;;;;;;;;;;;;;-144.99;78.65;52342.09;5084977;28;20009;-76
2021/09/04 04:39:06;;;;;;;;;;;;;;;-144.99;77.99;52374.72;5085835;28;20425;-76
2021/09/04 04:41:32;;;;;;;;;;;;;;;-144.99;77.50;52346.19;5079856;28;20067;-76
2021/09/04 04:43:58;;;;;;;;;;;;;;;-144.99;77.09;52346.19;5080709;28;19978;-76
2021/09/04 04:46:25;;;;;;;;;;;;;;;-144.99;76.88;52346.19;5086045;28;19995;-76
2021/09/04 04:48:51;;;;;;;;;;;;;;;-144.99;76.96;52342.09;5083800;28;19979;-76
2021/09/04 04:51:19;;;;;;;;;;;;;;;-144.99;76.86;52342.09;5084034;28;19991;-76
2021/09/04 04:53:45;;;;;;;;;;;;;;;-144.99;76.93;52358.41;5086330;28;19978;-76
2021/09/04 04:56:11;;;;;;;;;;;;;;;-144.99;76.79;52333.94;5086544;28;19994;-76
2021/09/04 04:58:37;;;;;;;;;;;;;;;-144.99;76.51;52354.34;5086802;28;20402;-76
2021/09/04 05:01:04;;;;;;;;;;;;;;;-144.99;76.47;52362.50;5085894;28;19960;-76
2021/09/04 05:03:30;;;;;;;;;;;;;;;-144.99;76.40;52313.56;5075513;28;20003;-76
2021/09/04 05:05:56;;;;;;;;;;;;;;;-144.99;76.41;52325.81;5080991;28;20447;-77
2021/09/04 05:08:24;;;;;;;;;;;;;;;-144.99;76.25;52319.69;5077441;28;19979;-77
2021/09/04 05:10:50;;;;;;;;;;;;;;;-144.99;76.44;52354.34;5089895;28;19983;-75
2021/09/04 05:13:17;;;;;;;;;;;;;;;-144.99;76.24;52399.19;5078820;28;20329;-76
2021/09/04 05:15:43;;;;;;;;;;;;;;;-144.99;76.36;52348.22;5083854;28;20062;-77
2021/09/04 05:18:09;;;;;;;;;;;;;;;-144.99;76.36;52333.94;5079627;28;20559;-74
2021/09/04 05:20:35;;;;;;;;;;;;;;;-144.99;76.39;52325.81;5097075;28;19979;-75
2021/09/04 05:23:02;;;;;;;;;;;;;;;-144.99;76.31;52348.22;5092593;28;19986;-75
2021/09/04 05:25:29;;;;;;;;;;;;;;;-144.99;76.37;52354.34;5090920;28;20366;-74
2021/09/04 05:27:56;;;;;;;;;;;;;;;-144.99;76.16;52378.78;5090302;28;19998;-74
2021/09/04 05:30:22;;;;;;;;;;;;;;;-144.99;76.15;52370.63;5086225;28;19990;-77
2021/09/04 05:32:48;;;;;;;;;;;;;;;-144.99;76.20;52370.63;5076250;28;19978;-77
2021/09/04 05:35:14;;;;;;;;;;;;;;;-144.99;76.03;52366.56;5079002;28;19978;-75
2021/09/04 05:37:42;;;;;;;;;;;;;;;-144.99;75.85;52366.56;5088785;28;20010;-73
2021/09/04 05:40:09;;;;;;;;;;;;;;;-144.99;75.88;52331.91;5089679;28;19974;-74
2021/09/04 05:42:36;;;;;;;;;;;;;;;-144.99;75.78;52329.88;5089958;28;19960;-73
2021/09/04 05:45:03;;;;;;;;;;;;;;;-144.99;75.79;52309.50;5089684;28;20450;-75
2021/09/04 05:47:29;;;;;;;;;;;;;;;-144.99;75.46;52331.91;5086873;28;19970;-76
2021/09/04 05:49:55;;;;;;;;;;;;;;;-144.99;75.44;52342.09;5089421;28;19975;-77
2021/09/04 05:52:22;;;;;;;;;;;;;;;-144.99;75.65;52313.56;5088081;28;20039;-76
2021/09/04 05:54:51;;;;;;;;;;;;;;;-144.99;75.59;52350.25;5085991;28;19978;-76
2021/09/04 05:57:18;;;;;;;;;;;;;;;-144.99;75.63;52370.63;5085424;28;20475;-76
2021/09/04 05:59:45;;;;;;;;;;;;;;;-144.99;75.77;52346.19;5089267;28;19978;-76
2021/09/04 06:02:12;;;;;;;;;;;;;;;-144.99;75.71;52333.94;5089646;28;19988;-76
2021/09/04 06:04:38;;;;;;;;;;;;;;;-144.99;75.70;52342.09;5082118;28;19975;-76
2021/09/04 06:07:04;;;;;;;;;;;;;;;-144.99;75.84;52395.09;5077950;28;19995;-77
2021/09/04 06:09:30;;;;;;;;;;;;;;;-144.99;75.72;52321.72;5080126;28;19968;-77
2021/09/04 06:11:57;;;;;;;;;;;;;;;-144.99;75.52;52344.16;5089117;28;19994;-76
2021/09/04 06:14:23;;;;;;;;;;;;;;;-144.99;75.72;52309.50;5089251;28;20436;-76
2021/09/04 06:16:51;;;;;;;;;;;;;;;-144.99;75.47;52301.34;5086907;28;20004;-76
2021/09/04 06:19:17;;;;;;;;;;;;;;;-144.99;75.49;52358.41;5088681;28;19962;-73
2021/09/04 06:21:43;;;;;;;;;;;;;;;-144.99;75.24;52340.06;5087988;28;19949;-74
2021/09/04 06:24:10;;;;;;;;;;;;;;;-144.99;75.46;52346.19;5089004;28;20445;-74
2021/09/04 06:26:36;;;;;;;;;;;;;;;-144.99;74.95;52325.81;5076129;28;19988;-75
2021/09/04 06:29:02;;;;;;;;;;;;;;;-144.99;75.07;52350.25;5088974;28;20245;-75
2021/09/04 06:31:29;;;;;;;;;;;;;;;-144.99;74.98;52325.81;5077391;28;19998;-73
2021/09/04 06:33:56;;;;;;;;;;;;;;;-144.99;74.73;52317.66;5083549;28;19996;-75
2021/09/04 06:36:23;;;;;;;;;;;;;;;-144.99;74.80;52370.63;5081497;28;19986;-74
2021/09/04 06:38:49;;;;;;;;;;;;;;;-144.99;74.41;52305.41;5079447;28;19979;-73
2021/09/04 06:41:15;;;;;;;;;;;;;;;-144.99;74.04;52315.59;5089947;28;19988;-74
2021/09/04 06:43:41;;;;;;;;;;;;;;;-144.99;73.88;52338.03;5090249;28;20005;-73
2021/09/04 06:46:08;;;;;;;;;;;;;;;-144.99;73.76;52346.19;5087583;28;19992;-74
2021/09/04 06:48:34;;;;;;;;;;;;;;;-144.99;73.52;52309.50;5086437;28;19970;-74
2021/09/04 06:51:02;;;;;;;;;;;;;;;-144.99;73.34;52313.56;5086988;28;19994;-75
2021/09/04 06:53:28;;;;;;;;;;;;;;;-144.99;72.77;52319.69;5087589;28;19978;-74
2021/09/04 06:55:54;;;;;;;;;;;;;;;-144.99;72.27;52305.41;5084679;28;19970;-75
2021/09/04 06:58:21;;;;;;;;;;;;;;;-144.99;72.46;52331.91;5078176;28;20025;-74
2021/09/04 07:00:47;;;;;;;;;;;;;;;-144.99;71.98;52325.81;5092453;28;19978;-73
2021/09/04 07:03:13;;;;;;;;;;;;;;;-144.99;71.71;52285.03;5090364;28;20107;-74
2021/09/04 07:05:39;;;;;;;;;;;;;;;-144.99;71.98;52278.91;5085876;28;19982;-76
2021/09/04 07:08:07;;;;;;;;;;;;;;;-144.99;71.76;52329.88;5071583;28;20504;-75
2021/09/04 07:10:33;;;;;;;;;;;;;;;-144.99;71.98;52289.13;5085500;28;19977;-76
2021/09/04 07:13:00;;;;;;;;;;;;;;;-144.99;71.63;52260.56;5088360;28;19982;-72
2021/09/04 07:15:27;;;;;;;;;;;;;;;-144.99;71.08;52327.84;5089698;28;20027;-75
2021/09/04 07:17:53;;;;;;;;;;;;;;;-144.99;70.45;52276.88;5087347;28;20088;-74
2021/09/04 07:20:19;;;;;;;;;;;;;;;-144.99;69.89;52291.16;5088599;28;20567;-73
2021/09/04 07:22:46;;;;;;;;;;;;;;;-144.99;69.32;52285.03;5087476;28;19976;-75
2021/09/04 07:25:13;;;;;;;;;;;;;;;-144.99;69.16;52311.53;5088545;28;19974;-75
2021/09/04 07:27:40;;;;;;;;;;;;;;;-144.99;68.54;52285.03;5087909;28;20794;-74
2021/09/04 07:30:06;;;;;;;;;;;;;;;-144.99;68.46;52307.47;5088823;28;19966;-73
2021/09/04 07:32:33;;;;;;;;;;;;;;;-144.99;67.82;52285.03;5074950;28;19981;-73
2021/09/04 07:34:59;;;;;;;;;;;;;;;-144.99;67.38;52258.53;5089745;28;19998;-78
2021/09/04 07:37:25;;;;;;;;;;;;;;;-144.99;66.91;52293.19;5083570;28;20345;-78
2021/09/04 07:39:52;;;;;;;;;;;;;;;-144.99;66.16;52260.56;5074690;28;19977;-77
2021/09/04 07:42:19;;;;;;;;;;;;;;;-144.99;65.20;52252.44;5089293;28;20423;-78
2021/09/04 07:44:46;;;;;;;;;;;;;;;-144.99;63.96;52268.72;5089186;28;19973;-75
2021/09/04 07:47:12;;;;;;;;;;;;;;;-144.99;63.49;52252.44;5089296;28;19987;-78
2021/09/04 07:49:38;;;;;;;;;;;;;;;-144.99;62.97;52250.38;5090170;28;20387;-75
2021/09/04 07:52:05;;;;;;;;;;;;;;;-144.99;62.48;52264.66;5094898;28;19987;-74
2021/09/04 07:54:31;;;;;;;;;;;;;;;-144.99;62.33;52276.88;5092267;28;19957;-75
2021/09/04 07:56:57;;;;;;;;;;;;;;;-144.99;62.24;52248.34;5079990;28;19990;-76
2021/09/04 07:59:25;;;;;;;;;;;;;;;-144.99;61.38;52280.97;5091903;28;19962;-75
2021/09/04 08:01:51;;;;;;;;;;;;;;;-144.99;60.60;52244.28;5095022;28;19973;-76
2021/09/04 08:04:17;;;;;;;;;;;;;;;-144.99;60.47;52236.13;5093284;28;19974;-77
2021/09/04 08:06:44;;;;;;;;;;;;;;;-144.99;60.35;52285.03;5078141;28;19996;-76
2021/09/04 08:09:10;;;;;;;;;;;;;;;-144.99;59.28;52223.88;5081700;28;19960;-74
2021/09/04 08:11:36;;;;;;;;;;;;;;;-144.99;59.20;52246.31;5092744;28;19992;-75
2021/09/04 08:14:03;;;;;;;;;;;;;;;-144.99;58.60;52221.84;5091652;28;19968;-75
2021/09/04 08:16:30;;;;;;;;;;;;;;;-144.99;58.33;52203.50;5090042;28;19980;-74
2021/09/04 08:18:57;;;;;;;;;;;;;;;-144.99;58.11;52223.88;5090838;28;19964;-76
2021/09/04 08:21:23;;;;;;;;;;;;;;;-144.99;57.67;52232.03;5096064;28;19983;-76
2021/09/04 08:23:49;;;;;;;;;;;;;;;-144.99;56.47;52236.13;5094708;28;19956;-76
2021/09/04 08:26:16;;;;;;;;;;;;;;;-144.99;55.76;52203.50;5096598;28;19977;-75
2021/09/04 08:28:42;;;;;;;;;;;;;;;-144.99;55.95;52183.13;5097600;28;19958;-77
2021/09/04 08:31:08;;;;;;;;;;;;;;;-144.99;55.40;52199.44;5089166;28;20473;-76
2021/09/04 08:33:36;;;;;;;;;;;;;;;-144.99;55.46;52236.13;5094711;28;19977;-77
2021/09/04 08:36:02;;;;;;;;;;;;;;;-144.99;55.35;52234.09;5098783;28;20187;-74
2021/09/04 08:38:29;;;;;;;;;;;;;;;-144.99;54.71;52215.75;5094319;28;19951;-76
2021/09/04 08:40:55;;;;;;;;;;;;;;;-144.99;54.96;52211.66;5093906;28;19954;-76
2021/09/04 08:43:22;;;;;;;;;;;;;;;-144.99;54.78;52207.59;5099412;28;19977;-75
2021/09/04 08:45:48;;;;;;;;;;;;;;;-144.99;55.21;52244.28;5096468;28;19960;-76
2021/09/04 08:48:15;;;;;;;;;;;;;;;-144.99;55.47;52246.31;5092020;28;19948;-77
2021/09/04 08:50:42;;;;;;;;;;;;;;;-144.99;55.22;52223.88;5087559;28;20434;-75
2021/09/04 08:53:09;;;;;;;;;;;;;;;-144.99;55.57;52248.34;5093955;28;19978;-76
2021/09/04 08:55:35;;;;;;;;;;;;;;;-144.99;56.06;52234.09;5096244;28;19951;-76
2021/09/04 08:58:01;;;;;;;;;;;;;;;-144.99;56.61;52248.34;5095730;28;19979;-74
2021/09/04 09:00:29;;;;;;;;;;;;;;;-144.99;57.20;52244.28;5095506;28;19957;-75
2021/09/04 09:02:55;;;;;;;;;;;;;;;-144.99;57.66;52236.13;5096263;28;19956;-76
2021/09/04 09:05:22;;;;;;;;;;;;;;;-144.99;57.71;52254.47;5093212;28;19946;-77
2021/09/04 09:07:50;;;;;;;;;;;;;;;-144.99;58.00;52256.50;5077268;28;19981;-76
2021/09/04 09:10:30;;;;;;;;;;;;;;;-144.99;57.48;52225.94;5079558;28;20300;-75
2021/09/04 09:12:56;;;;;;;;;;;;;;;-144.99;57.18;52230.00;5096110;28;20086;-75
2021/09/04 09:15:23;;;;;;;;;;;;;;;-144.99;57.09;52223.88;5095553;28;19978;-75
2021/09/04 09:17:57;;;;;;;;;;;;;;;-144.99;57.34;52219.81;5089875;28;19979;-76
2021/09/04 09:20:24;;;;;;;;;;;;;;;-144.99;58.00;52227.97;5089813;28;19965;-74
2021/09/04 09:22:52;;;;;;;;;;;;;;;-144.99;57.93;52248.34;5097436;28;19982;-75
2021/09/04 09:25:19;;;;;;;;;;;;;;;-144.99;58.42;52276.88;5098751;28;19975;-77
2021/09/04 09:27:58;;;;;;;;;;;;;;;-144.99;58.63;52248.34;5099491;28;20004;-77
2021/09/04 09:30:32;;;;;;;;;;;;;;;-144.99;59.22;52252.44;5086301;28;19969;-75
2021/09/04 09:32:58;;;;;;;;;;;;;;;-144.99;59.71;52254.47;5083898;28;19978;-75
2021/09/04 09:35:35;;;;;;;;;;;;;;;-144.99;59.96;52268.72;5098187;28;19989;-76
2021/09/04 09:38:03;;;;;;;;;;;;;;;-144.99;60.26;52248.34;5092420;28;19982;-76
2021/09/04 09:40:30;;;;;;;;;;;;;;;-144.99;60.38;52240.19;5088993;28;19961;-76
2021/09/04 09:42:56;;;;;;;;;;;;;;;-144.99;59.70;52256.50;5082154;28;19958;-76
2021/09/04 09:45:38;;;;;;;;;;;;;;;-144.99;59.58;52227.97;5094615;28;19928;-76
2021/09/04 09:48:04;;;;;;;;;;;;;;;-144.99;59.38;52215.75;5091376;28;19990;-77
2021/09/04 09:50:31;;;;;;;;;;;;;;;-144.99;58.32;52219.81;5094655;28;19959;-75
2021/09/04 09:52:58;;;;;;;;;;;;;;;-144.99;57.75;52244.28;5096497;28;19975;-76
2021/09/04 09:55:26;;;;;;;;;;;;;;;-144.99;57.78;52240.19;5099259;28;19959;-76
2021/09/04 09:57:52;;;;;;;;;;;;;;;-144.99;57.90;52236.13;5098754;28;19996;-75
2021/09/04 10:00:19;;;;;;;;;;;;;;;-144.99;58.23;52244.28;5097185;28;19967;-76
2021/09/04 10:02:46;;;;;;;;;;;;;;;-144.99;58.62;52248.34;5085500;28;20337;-75
2021/09/04 10:05:13;;;;;;;;;;;;;;;-144.99;58.24;52232.03;5097214;28;19978;-77
2021/09/04 10:07:40;;;;;;;;;;;;;;;-144.99;58.72;52260.56;5087237;28;20011;-75
2021/09/04 10:10:07;;;;;;;;;;;;;;;-144.99;58.52;52278.91;5092125;28;19960;-77
2021/09/04 10:12:34;;;;;;;;;;;;;;;-144.99;57.95;52244.28;5092637;28;19974;-75
2021/09/04 10:15:00;;;;;;;;;;;;;;;-144.99;58.17;52248.34;5098675;28;19965;-74
2021/09/04 10:17:27;;;;;;;;;;;;;;;-144.99;57.28;52240.19;5093736;28;20014;-74
2021/09/04 10:19:53;;;;;;;;;;;;;;;-144.99;57.21;52248.34;5092740;28;19958;-75
2021/09/04 10:22:20;;;;;;;;;;;;;;;-144.99;57.01;52246.31;5093514;28;19924;-75
2021/09/04 10:24:47;;;;;;;;;;;;;;;-144.99;56.25;52207.59;5099473;28;20331;-75
2021/09/04 10:27:15;;;;;;;;;;;;;;;-144.99;55.73;52211.66;5098730;28;20463;-77
2021/09/04 10:29:43;;;;;;;;;;;;;;;-144.99;55.55;52187.19;5095218;28;20383;-77
2021/09/04 10:32:13;;;;;;;;;;;;;;;-144.99;56.08;52227.97;5082125;28;20034;-78
2021/09/04 10:34:40;;;;;;;;;;;;;;;-144.99;55.59;52254.47;5094880;28;19968;-78
2021/09/04 10:37:08;;;;;;;;;;;;;;;-144.99;55.60;52240.19;5093468;28;19991;-77
2021/09/04 10:39:49;;;;;;;;;;;;;;;-144.99;56.11;52195.34;5094572;28;19986;-76
2021/09/04 10:42:16;;;;;;;;;;;;;;;-144.99;55.91;52223.88;5096160;28;19954;-77
2021/09/04 10:44:45;;;;;;;;;;;;;;;-144.99;55.77;52248.34;5081725;28;19964;-77
2021/09/04 10:47:12;;;;;;;;;;;;;;;-144.99;55.82;52232.03;5092353;28;19928;-76
2021/09/04 10:49:38;;;;;;;;;;;;;;;-144.99;56.05;52199.44;5082560;28;19955;-77
2021/09/04 10:52:05;;;;;;;;;;;;;;;-144.99;55.73;52232.03;5091077;28;19978;-77
2021/09/04 10:54:57;;;;;;;;;;;;;;;-144.99;55.57;52232.03;4382328;28;10000734;-77
2021/09/04 10:57:24;;;;;;;;;;;;;;;-144.99;55.11;52260.56;5085025;28;20053;-77
2021/09/04 11:00:19;;;;;;;;;;;;;;;-144.99;54.34;52232.03;5085884;28;19956;-74
2021/09/04 11:02:48;;;;;;;;;;;;;;;-144.99;53.49;52219.81;5086203;28;19957;-78
2021/09/04 11:05:48;;;;;;;;;;;;;;;-144.99;52.59;52148.47;5084253;28;20025;-77
2021/09/04 11:08:14;;;;;;;;;;;;;;;-144.99;51.72;52138.28;5094602;22;20422;-78
2021/09/04 11:10:41;;;;;;;;;;;;;;;-144.99;49.46;52154.59;5044950;28;19957;-76
2021/09/04 11:13:33;;;;;;;;;;;;;;;-144.99;48.01;52152.56;5051975;28;19960;-81
2021/09/04 11:16:24;;;;;;;;;;;;;;;-144.99;47.99;52107.72;5035420;28;20135;-79
2021/09/04 11:18:51;;;;;;;;;;;;;;;-144.99;46.71;52085.31;5051108;28;19970;-79
2021/09/04 11:21:17;;;;;;;;;;;;;;;-144.99;45.48;52085.31;5052014;28;20426;-78
2021/09/04 11:23:44;;;;;;;;;;;;;;;-144.99;44.81;52018.03;5053629;28;20319;-78
2021/09/04 11:26:11;;;;;;;;;;;;;;;-144.99;44.63;51958.94;5052250;28;20465;-81
2021/09/04 11:28:38;;;;;;;;;;;;;;;-144.99;44.26;51946.72;5040668;28;19928;-77
2021/09/04 11:31:05;;;;;;;;;;;;;;;-144.99;43.90;51983.41;5046969;28;20346;-75
2021/09/04 11:33:32;;;;;;;;;;;;;;;-144.99;43.41;51946.72;5053971;28;19928;-78
2021/09/04 11:35:58;;;;;;;;;;;;;;;-144.99;42.88;52009.91;5051610;28;19929;-77
2021/09/04 11:38:26;;;;;;;;;;;;;;;-144.99;41.84;51885.56;5045915;28;20199;-78
2021/09/04 11:40:53;;;;;;;;;;;;;;;-144.99;41.84;52099.56;5045741;28;20012;-77
2021/09/04 11:43:24;;;;;;;;;;;;;;;-144.99;41.95;52060.84;5045459;28;19940;-78
2021/09/04 11:45:59;;;;;;;;;;;;;;;-144.99;42.38;52099.56;5048622;28;19944;-77
2021/09/04 11:48:27;;;;;;;;;;;;;;;-144.99;43.07;52158.66;5054567;28;20358;-75
2021/09/04 11:50:53;;;;;;;;;;;;;;;-144.99;44.77;52162.75;5045790;28;19929;-78
2021/09/04 11:53:21;;;;;;;;;;;;;;;-144.99;45.24;52160.72;5043753;28;19933;-76
2021/09/04 11:55:47;;;;;;;;;;;;;;;-144.99;45.42;52168.84;5048506;28;19928;-78
2021/09/04 11:58:14;;;;;;;;;;;;;;;-144.99;45.82;52172.94;5045701;28;20023;-78
2021/09/04 12:00:41;;;;;;;;;;;;;;;-144.99;45.99;52117.91;5044742;28;20279;-77
2021/09/04 12:03:08;;;;;;;;;;;;;;;-144.99;46.35;52170.91;5046070;28;19929;-76
2021/09/04 12:05:37;;;;;;;;;;;;;;;-144.99;45.83;52152.56;5049256;28;19928;-75
2021/09/04 12:08:05;;;;;;;;;;;;;;;-144.99;46.34;52177.00;5048342;28;19933;-79
2021/09/04 12:10:33;;;;;;;;;;;;;;;-144.99;45.72;52197.41;5046211;28;19940;-79
2021/09/04 12:12:59;;;;;;;;;;;;;;;-144.99;45.69;52166.81;5044297;28;19974;-78
2021/09/04 12:15:27;;;;;;;;;;;;;;;-144.99;46.04;52203.50;5044670;28;20437;-76
2021/09/04 12:17:54;;;;;;;;;;;;;;;-144.99;46.41;52197.41;5055122;28;19932;-79
2021/09/04 12:20:27;;;;;;;;;;;;;;;-144.99;46.43;52174.97;5045009;28;19935;-78
2021/09/04 12:22:59;;;;;;;;;;;;;;;-144.99;47.04;52174.97;5044430;28;20048;-78
2021/09/04 12:25:27;;;;;;;;;;;;;;;-144.99;47.35;52232.03;5046376;28;19924;-79